Time;durP1;ratioP1;P1;durP2;ratioP2;P2;SDS_P1;SDS_P2;PMS_P1;PMS_P2;Temp;Humidity;BMP_temperature;BMP_pressure;BME280_temperature;BME280_humidity;BME280_pressure;Samples;Min_cycle;Max_cycle;Signal;HPM_P1;HPM_P2
2021/03/04 00:01:59;;;;;;;70.00;44.67;;;3.00;93.30;;;;;;5096099;28;20261;-86
2021/03/04 00:04:34;;;;;;;66.93;41.87;;;2.90;93.30;;;;;;5095939;28;20202;-86
2021/03/04 00:07:04;;;;;;;63.20;37.07;;;2.90;93.20;;;;;;5094753;28;20163;-86
2021/03/04 00:09:39;;;;;;;60.33;34.27;;;2.80;93.10;;;;;;5096323;28;20535;-87
2021/03/04 00:12:12;;;;;;;60.80;39.03;;;2.80;93.10;;;;;;5095783;28;20524;-86
2021/03/04 00:14:41;;;;;;;36.20;20.70;;;2.70;93.20;;;;;;5077617;28;20254;-87
2021/03/04 00:17:11;;;;;;;44.17;27.27;;;2.60;93.20;;;;;;5077618;28;20201;-86
2021/03/04 00:19:47;;;;;;;57.33;35.77;;;2.60;93.20;;;;;;5077553;28;20209;-86
2021/03/04 00:22:27;;;;;;;50.43;30.70;;;2.60;93.30;;;;;;5096180;28;20158;-86
2021/03/04 00:25:01;;;;;;;52.10;30.53;;;2.70;93.20;;;;;;5078532;28;20171;-86
2021/03/04 00:27:30;;;;;;;47.37;28.93;;;2.70;93.10;;;;;;5077025;28;20199;-86
2021/03/04 00:29:56;;;;;;;45.03;30.77;;;2.70;93.20;;;;;;5077219;28;20169;-85
2021/03/04 00:32:22;;;;;;;44.33;27.60;;;2.60;93.10;;;;;;5077205;28;20262;-86
2021/03/04 00:34:48;;;;;;;42.67;26.90;;;2.60;93.00;;;;;;5077909;28;20673;-87
2021/03/04 00:37:14;;;;;;;43.57;26.33;;;2.60;93.00;;;;;;5095327;28;20209;-86
2021/03/04 00:39:42;;;;;;;43.23;26.03;;;2.60;93.00;;;;;;5076727;28;20690;-86
2021/03/04 00:42:09;;;;;;;36.93;23.73;;;2.50;93.20;;;;;;5077032;28;20171;-87
2021/03/04 00:44:36;;;;;;;40.87;23.47;;;2.50;93.30;;;;;;5095189;28;20175;-87
2021/03/04 00:47:03;;;;;;;32.00;20.50;;;2.50;93.30;;;;;;5076793;28;20666;-87
2021/03/04 00:49:34;;;;;;;39.20;23.17;;;2.50;93.50;;;;;;5076665;28;20204;-87
2021/03/04 00:52:06;;;;;;;31.83;22.47;;;2.50;93.60;;;;;;5077073;28;20173;-87
2021/03/04 00:54:34;;;;;;;36.57;23.10;;;2.50;93.50;;;;;;5076674;28;20175;-86
2021/03/04 00:57:06;;;;;;;39.43;23.43;;;2.50;93.70;;;;;;5094758;28;20256;-86
2021/03/04 00:59:33;;;;;;;29.83;19.77;;;2.50;93.70;;;;;;5076531;28;20210;-86
2021/03/04 01:02:06;;;;;;;35.47;20.70;;;2.50;93.70;;;;;;5076897;28;20174;-87
2021/03/04 01:04:35;;;;;;;40.17;22.63;;;2.50;93.60;;;;;;5094614;28;20191;-87
2021/03/04 01:07:01;;;;;;;33.93;20.10;;;2.40;93.70;;;;;;5076744;28;20171;-87
2021/03/04 01:09:26;;;;;;;29.70;17.80;;;2.50;93.70;;;;;;5076414;28;20567;-87
2021/03/04 01:11:52;;;;;;;21.13;13.43;;;2.60;93.70;;;;;;5076559;28;20264;-87
2021/03/04 01:14:18;;;;;;;27.03;16.13;;;2.60;93.60;;;;;;5076607;28;20179;-88
2021/03/04 01:16:55;;;;;;;24.23;12.93;;;2.60;93.50;;;;;;5076415;28;20177;-87
2021/03/04 01:19:28;;;;;;;29.47;14.83;;;2.60;93.30;;;;;;5075984;28;20209;-87
2021/03/04 01:21:59;;;;;;;23.80;14.13;;;2.50;93.30;;;;;;5076010;28;20176;-87
2021/03/04 01:24:31;;;;;;;18.70;11.40;;;2.50;93.30;;;;;;5094591;28;20178;-87
2021/03/04 01:27:03;;;;;;;23.03;12.37;;;2.50;93.40;;;;;;5094296;28;20654;-88
2021/03/04 01:29:39;;;;;;;14.27;9.50;;;2.40;93.30;;;;;;5075883;28;20219;-86
2021/03/04 01:32:11;;;;;;;17.63;12.33;;;2.30;93.20;;;;;;5076050;28;20589;-87
2021/03/04 01:34:37;;;;;;;21.87;11.73;;;2.40;93.40;;;;;;5076162;28;20172;-87
2021/03/04 01:37:03;;;;;;;21.33;13.10;;;2.40;93.40;;;;;;5094163;28;20180;-86
2021/03/04 01:39:37;;;;;;;18.07;12.33;;;2.40;93.40;;;;;;5076183;28;20202;-85
2021/03/04 01:42:11;;;;;;;17.67;12.17;;;2.50;93.10;;;;;;5075990;28;20166;-85
2021/03/04 01:44:41;;;;;;;21.53;12.50;;;2.40;93.10;;;;;;5075785;28;20171;-87
2021/03/04 01:47:14;;;;;;;21.90;12.13;;;2.50;93.00;;;;;;5075766;28;20224;-87
2021/03/04 01:49:45;;;;;;;13.67;9.70;;;2.50;93.00;;;;;;5075588;28;20195;-87
2021/03/04 01:52:21;;;;;;;12.40;8.90;;;2.50;92.90;;;;;;5075747;28;20209;-86
2021/03/04 01:54:57;;;;;;;20.97;11.73;;;2.40;92.90;;;;;;5075757;28;20557;-86
2021/03/04 01:57:31;;;;;;;15.53;10.97;;;2.50;92.90;;;;;;5075796;28;20265;-86
2021/03/04 01:59:59;;;;;;;21.07;11.70;;;2.50;93.00;;;;;;5075548;28;20175;-87
2021/03/04 02:06:15;;;;;;;17.70;11.23;;;2.50;93.20;;;;;;5075651;28;20206;-86
2021/03/04 02:08:53;;;;;;;20.30;12.57;;;2.50;93.30;;;;;;5075479;28;20199;-87
2021/03/04 02:11:37;;;;;;;22.43;12.87;;;2.50;93.30;;;;;;5075468;28;20198;-87
2021/03/04 02:14:13;;;;;;;21.27;12.70;;;2.50;93.40;;;;;;5093447;28;20526;-87
2021/03/04 02:16:56;;;;;;;23.63;13.20;;;2.60;93.40;;;;;;5075310;28;20180;-87
2021/03/04 02:19:55;;;;;;;24.33;13.00;;;2.60;93.40;;;;;;5075220;28;20239;-87
2021/03/04 02:22:50;;;;;;;17.37;11.10;;;2.60;93.40;;;;;;5075258;28;20175;-87
2021/03/04 02:25:28;;;;;;;15.20;9.97;;;2.60;93.30;;;;;;5093395;28;20155;-87
2021/03/04 02:28:04;;;;;;;14.67;8.30;;;2.70;93.10;;;;;;5093314;28;20210;-87
2021/03/04 02:30:43;;;;;;;17.50;9.73;;;2.70;93.00;;;;;;5076634;28;20178;-87
2021/03/04 02:33:25;;;;;;;13.67;9.80;;;2.70;92.90;;;;;;5079435;28;20185;-87
2021/03/04 02:35:58;;;;;;;16.50;10.13;;;2.70;92.80;;;;;;5079253;28;20179;-87
2021/03/04 02:38:31;;;;;;;13.80;10.10;;;2.70;92.80;;;;;;5079081;28;20221;-87
2021/03/04 02:41:07;;;;;;;13.53;9.07;;;2.80;92.80;;;;;;5080108;28;20609;-87
2021/03/04 02:43:41;;;;;;;13.97;9.50;;;2.80;92.80;;;;;;5079215;28;20170;-87
2021/03/04 02:46:13;;;;;;;11.47;9.70;;;2.80;92.60;;;;;;5079080;28;20296;-87
2021/03/04 02:48:45;;;;;;;12.33;9.47;;;2.70;92.30;;;;;;5079122;28;20209;-87
2021/03/04 02:51:15;;;;;;;11.97;7.23;;;2.70;92.20;;;;;;5079306;28;20187;-86
2021/03/04 02:53:47;;;;;;;11.03;6.77;;;2.70;91.70;;;;;;5079365;28;20180;-87
2021/03/04 02:56:13;;;;;;;9.47;6.43;;;2.70;91.50;;;;;;5097157;28;20231;-86
2021/03/04 02:58:40;;;;;;;10.77;7.93;;;2.70;91.40;;;;;;5078668;28;20218;-87
2021/03/04 03:01:15;;;;;;;11.17;8.07;;;2.70;91.50;;;;;;5097075;28;20171;-87
2021/03/04 03:03:51;;;;;;;12.97;9.43;;;2.70;91.50;;;;;;5078750;28;20711;-87
2021/03/04 03:06:26;;;;;;;12.90;10.20;;;2.80;91.30;;;;;;5078763;28;20185;-87
2021/03/04 03:09:01;;;;;;;13.03;8.80;;;2.80;91.20;;;;;;5078658;28;20203;-87
2021/03/04 03:11:36;;;;;;;14.87;9.00;;;2.80;91.30;;;;;;5078708;28;20171;-87
2021/03/04 03:14:15;;;;;;;12.97;8.43;;;2.80;91.30;;;;;;5078725;28;20178;-87
2021/03/04 03:16:48;;;;;;;10.87;8.53;;;2.80;91.50;;;;;;5078873;28;20211;-87
2021/03/04 03:19:21;;;;;;;11.73;8.83;;;2.80;91.60;;;;;;5078387;28;20212;-87
2021/03/04 03:21:55;;;;;;;13.13;8.50;;;2.80;91.60;;;;;;5096587;28;20188;-86
2021/03/04 03:24:29;;;;;;;12.40;9.17;;;2.80;91.70;;;;;;5078431;28;20173;-87
2021/03/04 03:26:58;;;;;;;13.07;9.70;;;2.80;91.50;;;;;;5078353;28;20645;-87
2021/03/04 03:29:31;;;;;;;18.03;10.13;;;2.80;91.60;;;;;;5078072;28;20225;-87
2021/03/04 03:32:05;;;;;;;13.60;9.53;;;2.80;91.70;;;;;;5078248;28;20179;-87
2021/03/04 03:34:31;;;;;;;15.53;10.90;;;2.80;91.70;;;;;;5096326;28;20171;-87
2021/03/04 03:37:02;;;;;;;11.27;9.93;;;2.80;91.80;;;;;;5078173;28;20637;-87
2021/03/04 03:39:28;;;;;;;12.77;10.17;;;2.80;91.80;;;;;;5077974;28;20210;-87
2021/03/04 03:42:02;;;;;;;11.77;10.50;;;2.80;91.70;;;;;;5077954;28;20632;-87
2021/03/04 03:44:34;;;;;;;11.27;9.33;;;2.80;91.70;;;;;;5078173;28;20164;-87
2021/03/04 03:47:04;;;;;;;12.33;10.23;;;2.80;91.60;;;;;;5077898;28;20648;-87
2021/03/04 03:49:39;;;;;;;13.67;9.40;;;2.90;91.60;;;;;;5077988;28;20348;-87
2021/03/04 03:52:11;;;;;;;15.10;9.97;;;2.90;91.60;;;;;;5095987;28;20178;-87
2021/03/04 03:54:43;;;;;;;13.63;10.20;;;2.90;91.60;;;;;;5078016;28;20174;-87
2021/03/04 03:57:16;;;;;;;13.60;9.93;;;2.90;91.60;;;;;;5095944;28;20171;-87
2021/03/04 03:59:51;;;;;;;14.63;11.17;;;2.90;91.70;;;;;;5077683;28;20317;-87
2021/03/04 04:02:27;;;;;;;15.00;10.07;;;2.90;91.60;;;;;;5095815;28;20180;-87
2021/03/04 04:04:56;;;;;;;11.00;9.03;;;2.90;91.20;;;;;;5077611;28;20182;-87
2021/03/04 04:07:34;;;;;;;15.47;9.33;;;3.00;91.10;;;;;;5077737;28;20181;-87
2021/03/04 04:10:03;;;;;;;10.60;8.17;;;2.90;91.10;;;;;;5095874;28;20217;-87
2021/03/04 04:12:37;;;;;;;11.60;7.40;;;2.90;90.90;;;;;;5077756;28;20602;-86
2021/03/04 04:15:04;;;;;;;11.37;8.70;;;3.00;90.70;;;;;;5095540;28;20632;-87
2021/03/04 04:17:31;;;;;;;12.57;9.43;;;3.00;90.70;;;;;;5095419;28;20258;-86
2021/03/04 04:20:10;;;;;;;11.77;7.97;;;3.00;90.50;;;;;;5077239;28;20198;-87
2021/03/04 04:22:49;;;;;;;15.23;8.77;;;3.00;90.30;;;;;;5077485;28;20176;-87
2021/03/04 04:25:20;;;;;;;11.93;7.20;;;3.10;90.20;;;;;;5095698;28;20167;-87
2021/03/04 04:27:57;;;;;;;11.00;7.50;;;3.10;90.20;;;;;;5095357;28;20201;-87
2021/03/04 04:30:30;;;;;;;11.10;7.63;;;3.10;90.20;;;;;;5077145;28;20181;-87
2021/03/04 04:33:04;;;;;;;11.87;7.27;;;3.10;90.00;;;;;;5095150;28;20269;-87
2021/03/04 04:35:40;;;;;;;7.77;6.33;;;3.10;90.00;;;;;;5077105;28;20177;-87
2021/03/04 04:38:07;;;;;;;11.13;6.63;;;3.20;89.70;;;;;;5076929;28;20207;-87
2021/03/04 04:40:45;;;;;;;8.80;6.10;;;3.20;89.50;;;;;;5076942;28;20673;-87
2021/03/04 04:43:17;;;;;;;7.17;5.43;;;3.20;89.00;;;;;;5077264;28;20177;-87
2021/03/04 04:45:55;;;;;;;9.40;6.47;;;3.20;88.80;;;;;;5076787;28;20169;-87
2021/03/04 04:48:23;;;;;;;14.47;5.93;;;3.20;89.00;;;;;;5077240;28;20200;-87
2021/03/04 04:50:56;;;;;;;11.97;5.80;;;3.20;89.10;;;;;;5094864;28;20192;-87
2021/03/04 04:53:25;;;;;;;6.00;4.40;;;3.20;88.80;;;;;;5076168;28;20195;-87
2021/03/04 04:55:57;;;;;;;10.30;6.00;;;3.20;88.40;;;;;;5076479;28;20176;-86
2021/03/04 04:58:28;;;;;;;5.43;4.50;;;3.30;88.50;;;;;;5094718;28;20209;-87
2021/03/04 05:01:07;;;;;;;6.60;4.70;;;3.20;88.50;;;;;;5077466;28;20546;-87
2021/03/04 05:03:41;;;;;;;9.63;5.50;;;3.30;88.50;;;;;;5076724;28;20172;-87
2021/03/04 05:06:17;;;;;;;9.33;5.47;;;3.20;88.40;;;;;;5094837;28;20171;-86
2021/03/04 05:08:51;;;;;;;7.07;5.87;;;3.20;88.50;;;;;;5076303;28;20199;-87
2021/03/04 05:11:20;;;;;;;9.10;5.80;;;3.30;88.30;;;;;;5076502;28;20635;-87
2021/03/04 05:13:48;;;;;;;9.30;6.47;;;3.30;88.30;;;;;;5094409;28;20180;-87
2021/03/04 05:16:22;;;;;;;10.43;5.80;;;3.30;88.40;;;;;;5094385;28;20270;-87
2021/03/04 05:18:56;;;;;;;10.63;6.83;;;3.30;88.30;;;;;;5094384;28;20206;-87
2021/03/04 05:21:28;;;;;;;9.13;5.97;;;3.30;88.40;;;;;;5094426;28;20194;-87
2021/03/04 05:24:01;;;;;;;10.73;6.77;;;3.30;88.40;;;;;;5076166;28;20183;-87
2021/03/04 05:26:37;;;;;;;8.03;6.50;;;3.30;88.40;;;;;;5075958;28;20178;-87
2021/03/04 05:29:14;;;;;;;11.53;6.73;;;3.30;88.40;;;;;;5075899;28;20243;-87
2021/03/04 05:31:46;;;;;;;11.37;6.37;;;3.30;88.40;;;;;;5094414;28;20190;-87
2021/03/04 05:34:14;;;;;;;10.03;5.70;;;3.30;88.50;;;;;;5075899;28;20255;-87
2021/03/04 05:36:47;;;;;;;9.53;4.83;;;3.30;88.60;;;;;;5094034;28;20697;-87
2021/03/04 05:39:16;;;;;;;10.37;5.00;;;3.30;88.30;;;;;;5094181;28;20206;-87
2021/03/04 05:41:50;;;;;;;8.07;4.10;;;3.30;87.80;;;;;;5093891;28;20196;-87
2021/03/04 05:44:22;;;;;;;7.60;3.90;;;3.40;87.60;;;;;;5075820;28;20182;-87
2021/03/04 05:46:56;;;;;;;6.70;4.20;;;3.40;87.50;;;;;;5075826;28;20176;-87
2021/03/04 05:49:31;;;;;;;9.90;4.10;;;3.40;87.50;;;;;;5075615;28;20202;-87
2021/03/04 05:52:11;;;;;;;6.30;4.00;;;3.40;87.50;;;;;;5093780;28;20639;-87
2021/03/04 05:54:44;;;;;;;8.37;4.60;;;3.40;87.50;;;;;;5076556;28;20201;-89
2021/03/04 05:57:13;;;;;;;9.17;4.20;;;3.40;87.50;;;;;;5093733;28;20204;-88
2021/03/04 05:59:48;;;;;;;7.90;4.27;;;3.40;87.40;;;;;;5075416;28;20595;-88
2021/03/04 06:02:21;;;;;;;9.17;4.50;;;3.40;87.50;;;;;;5093749;28;20181;-89
2021/03/04 06:04:55;;;;;;;6.23;4.10;;;3.40;87.50;;;;;;5074727;28;20266;-88
2021/03/04 06:07:26;;;;;;;6.60;3.93;;;3.40;87.60;;;;;;5075412;28;20171;-89
2021/03/04 06:09:59;;;;;;;8.10;4.33;;;3.50;87.50;;;;;;5075737;28;20649;-88
2021/03/04 06:12:31;;;;;;;7.53;4.20;;;3.40;87.60;;;;;;5075502;28;20184;-88
2021/03/04 06:15:00;;;;;;;10.23;4.13;;;3.50;87.60;;;;;;5075446;28;20203;-88
2021/03/04 06:17:31;;;;;;;10.47;4.83;;;3.50;87.60;;;;;;5093357;28;20581;-88
2021/03/04 06:20:05;;;;;;;5.47;4.27;;;3.40;87.60;;;;;;5075283;28;20172;-88
2021/03/04 06:22:47;;;;;;;7.07;4.57;;;3.50;87.60;;;;;;5075360;28;20663;-88
2021/03/04 06:25:14;;;;;;;7.77;4.40;;;3.50;87.60;;;;;;5093313;28;20634;-89
2021/03/04 06:27:51;;;;;;;9.63;5.27;;;3.50;87.70;;;;;;5075084;28;20168;-88
2021/03/04 06:30:23;;;;;;;9.23;5.20;;;3.50;87.80;;;;;;5075207;28;20229;-89
2021/03/04 06:33:00;;;;;;;6.53;4.70;;;3.50;87.90;;;;;;5075149;28;20172;-88
2021/03/04 06:35:41;;;;;;;11.47;4.83;;;3.50;87.80;;;;;;5093360;28;20213;-88
2021/03/04 06:38:34;;;;;;;6.87;4.47;;;3.50;87.70;;;;;;5074993;28;20203;-88
2021/03/04 06:41:02;;;;;;;7.57;4.80;;;3.50;87.90;;;;;;5075214;28;20577;-89
2021/03/04 06:43:37;;;;;;;9.10;4.93;;;3.60;88.20;;;;;;5093182;28;20177;-89
2021/03/04 06:46:09;;;;;;;8.37;4.70;;;3.60;88.20;;;;;;5075611;28;20178;-89
2021/03/04 06:48:51;;;;;;;7.13;4.47;;;3.60;88.10;;;;;;5093189;28;20198;-89
2021/03/04 06:51:22;;;;;;;11.60;5.20;;;3.60;87.90;;;;;;5093184;28;20261;-88
2021/03/04 06:53:52;;;;;;;8.47;4.50;;;3.60;87.90;;;;;;5075014;28;20178;-88
2021/03/04 06:56:34;;;;;;;13.33;4.53;;;3.70;87.80;;;;;;5093059;28;20170;-88
2021/03/04 06:59:11;;;;;;;9.40;4.93;;;3.70;87.70;;;;;;5074774;28;20217;-88
2021/03/04 07:01:41;;;;;;;11.63;5.00;;;3.70;87.60;;;;;;5093055;28;20168;-89
2021/03/04 07:04:20;;;;;;;10.83;4.47;;;3.70;87.60;;;;;;5074903;28;20167;-89
2021/03/04 07:06:55;;;;;;;7.50;4.67;;;3.70;87.80;;;;;;5074811;28;20204;-88
2021/03/04 07:09:24;;;;;;;8.67;4.37;;;3.70;88.10;;;;;;5075039;28;20637;-89
2021/03/04 07:11:51;;;;;;;7.67;5.20;;;3.70;88.00;;;;;;5074916;28;20180;-89
2021/03/04 07:14:18;;;;;;;6.47;4.67;;;3.70;88.20;;;;;;5074952;28;20524;-88
2021/03/04 07:16:49;;;;;;;8.30;4.47;;;3.80;88.00;;;;;;5094318;28;20181;-89
2021/03/04 07:19:24;;;;;;;12.17;5.17;;;3.80;87.80;;;;;;5078614;28;20300;-89
2021/03/04 07:21:54;;;;;;;8.43;4.40;;;3.80;87.60;;;;;;5078515;28;20203;-88
2021/03/04 07:24:26;;;;;;;8.60;4.40;;;3.80;87.90;;;;;;5078352;28;20174;-89
2021/03/04 07:27:00;;;;;;;9.90;4.73;;;3.80;87.90;;;;;;5078441;28;20177;-88
2021/03/04 07:29:31;;;;;;;7.53;4.77;;;3.80;87.70;;;;;;5096337;28;20205;-88
2021/03/04 07:32:04;;;;;;;8.47;4.53;;;3.80;87.60;;;;;;5078361;28;20525;-89
2021/03/04 07:34:33;;;;;;;11.33;3.90;;;3.90;87.70;;;;;;5096392;28;20544;-89
2021/03/04 07:37:01;;;;;;;9.87;4.60;;;3.90;87.50;;;;;;5096391;28;20646;-89
2021/03/04 07:39:37;;;;;;;6.60;4.67;;;3.90;87.80;;;;;;5077975;28;20205;-88
2021/03/04 07:42:26;;;;;;;9.93;4.17;;;4.00;88.00;;;;;;5078089;28;20665;-88
2021/03/04 07:44:55;;;;;;;14.90;4.43;;;3.90;87.90;;;;;;5096332;28;20154;-88
2021/03/04 07:47:31;;;;;;;10.00;4.63;;;3.90;87.80;;;;;;5078012;28;20227;-88
2021/03/04 07:49:57;;;;;;;9.20;4.13;;;3.90;87.80;;;;;;5096102;28;20178;-89
2021/03/04 07:52:34;;;;;;;11.80;4.63;;;4.00;87.70;;;;;;5077910;28;20175;-89
2021/03/04 07:55:15;;;;;;;13.17;4.70;;;4.00;87.80;;;;;;5077895;28;20179;-89
2021/03/04 07:57:51;;;;;;;12.37;4.27;;;4.00;87.80;;;;;;5077662;28;20257;-89
2021/03/04 08:00:33;;;;;;;6.63;4.03;;;4.00;87.90;;;;;;5077794;28;20203;-89
2021/03/04 08:03:07;;;;;;;13.23;4.33;;;4.00;87.60;;;;;;5077743;28;20172;-89
2021/03/04 08:05:45;;;;;;;8.97;3.83;;;4.10;87.80;;;;;;5095815;28;20244;-89
2021/03/04 08:08:22;;;;;;;9.47;4.10;;;4.10;87.70;;;;;;5077526;28;20237;-89
2021/03/04 08:10:57;;;;;;;6.30;3.90;;;4.10;87.90;;;;;;5096294;28;20180;-88
2021/03/04 08:13:40;;;;;;;7.73;3.70;;;4.10;87.70;;;;;;5095817;28;20165;-88
2021/03/04 08:16:21;;;;;;;11.73;4.43;;;4.20;87.60;;;;;;5077469;28;20606;-88
2021/03/04 08:19:00;;;;;;;8.30;3.77;;;4.30;87.80;;;;;;5095556;28;20684;-89
2021/03/04 08:21:31;;;;;;;9.13;4.00;;;4.20;87.90;;;;;;5095482;28;20196;-88
2021/03/04 08:24:01;;;;;;;11.00;3.70;;;4.30;87.60;;;;;;5077240;28;20181;-89
2021/03/04 08:26:36;;;;;;;8.63;4.20;;;4.30;87.50;;;;;;5077313;28;20173;-89
2021/03/04 08:29:06;;;;;;;11.10;4.50;;;4.30;87.50;;;;;;5076274;28;20241;-90
2021/03/04 08:31:35;;;;;;;12.87;4.07;;;4.30;87.40;;;;;;5077201;28;20185;-88
2021/03/04 08:34:10;;;;;;;6.30;3.80;;;4.30;87.70;;;;;;5077119;28;20182;-89
2021/03/04 08:36:49;;;;;;;12.87;4.63;;;4.40;87.50;;;;;;5077079;28;20172;-89
2021/03/04 08:39:19;;;;;;;13.20;4.50;;;4.40;87.60;;;;;;5077371;28;20209;-89
2021/03/04 08:42:01;;;;;;;12.23;3.87;;;4.40;87.50;;;;;;5095178;28;20170;-89
2021/03/04 08:44:31;;;;;;;10.70;4.17;;;4.40;87.30;;;;;;5076987;28;20257;-89
2021/03/04 08:47:05;;;;;;;14.30;3.67;;;4.50;87.40;;;;;;5076835;28;20648;-89
2021/03/04 08:49:40;;;;;;;11.67;5.73;;;4.60;87.10;;;;;;5094886;28;20217;-88
2021/03/04 08:52:18;;;;;;;9.33;4.17;;;4.60;87.00;;;;;;5076817;28;20174;-89
2021/03/04 08:54:57;;;;;;;15.13;4.40;;;4.60;86.80;;;;;;5076669;28;20173;-89
2021/03/04 08:57:35;;;;;;;9.20;3.97;;;4.70;87.10;;;;;;5094860;28;20642;-89
2021/03/04 09:00:09;;;;;;;9.33;4.53;;;4.70;87.00;;;;;;5094666;28;20196;-89
2021/03/04 09:02:47;;;;;;;10.03;4.77;;;4.80;87.10;;;;;;5095008;28;20177;-89
2021/03/04 09:05:24;;;;;;;9.77;3.87;;;4.80;87.00;;;;;;5094957;28;20584;-88
2021/03/04 09:08:00;;;;;;;11.33;4.00;;;4.80;86.70;;;;;;5076316;28;20190;-88
2021/03/04 09:10:41;;;;;;;15.00;4.20;;;4.80;86.70;;;;;;5077169;28;20585;-89
2021/03/04 09:13:19;;;;;;;12.50;4.10;;;4.90;86.90;;;;;;5094621;28;20160;-89
2021/03/04 09:15:56;;;;;;;14.07;4.47;;;4.90;87.10;;;;;;5076412;28;20177;-88
2021/03/04 09:18:31;;;;;;;9.93;3.50;;;5.00;86.50;;;;;;5076132;28;20708;-88
2021/03/04 09:20:58;;;;;;;13.97;3.80;;;5.10;86.30;;;;;;5094444;28;20506;-88
2021/03/04 09:23:28;;;;;;;9.97;3.87;;;5.10;86.60;;;;;;5076099;28;20170;-88
2021/03/04 09:25:59;;;;;;;13.87;4.53;;;5.20;86.30;;;;;;5076559;28;20641;-89
2021/03/04 09:28:34;;;;;;;7.13;3.83;;;5.30;86.70;;;;;;5075707;28;20242;-88
2021/03/04 09:31:14;;;;;;;12.67;4.00;;;5.30;86.20;;;;;;5076647;28;20177;-89
2021/03/04 09:34:01;;;;;;;10.53;4.07;;;5.30;86.30;;;;;;5076830;28;20525;-89
2021/03/04 09:36:34;;;;;;;11.47;4.10;;;5.40;86.00;;;;;;5076027;28;20176;-88
2021/03/04 09:39:06;;;;;;;10.53;4.13;;;5.50;85.90;;;;;;5075654;28;20207;-89
2021/03/04 09:41:54;;;;;;;10.30;4.33;;;5.50;85.50;;;;;;5075855;28;20197;-88
2021/03/04 09:44:20;;;;;;;11.47;4.03;;;5.50;85.10;;;;;;5093974;28;20163;-89
2021/03/04 09:46:52;;;;;;;14.10;4.40;;;5.50;85.60;;;;;;5075797;28;20258;-88
2021/03/04 09:49:21;;;;;;;8.53;3.63;;;5.50;85.10;;;;;;5075710;28;20195;-89
2021/03/04 09:51:53;;;;;;;10.93;3.70;;;5.50;84.90;;;;;;5094077;28;20176;-88
2021/03/04 09:54:31;;;;;;;21.23;3.43;;;5.50;84.30;;;;;;5075691;28;20185;-88
2021/03/04 09:57:09;;;;;;;9.67;3.07;;;5.60;82.60;;;;;;5076441;28;20170;-88
2021/03/04 09:59:55;;;;;;;11.70;2.97;;;5.60;81.40;;;;;;5093598;28;20564;-88
2021/03/04 10:02:26;;;;;;;14.83;3.53;;;5.70;80.80;;;;;;5075719;28;20237;-88
2021/03/04 10:05:03;;;;;;;10.10;3.30;;;5.60;80.80;;;;;;5075488;28;20535;-87
2021/03/04 10:07:33;;;;;;;12.93;4.03;;;5.70;80.40;;;;;;5059757;28;20216;-87
2021/03/04 10:10:02;;;;;;;13.30;3.03;;;5.70;80.80;;;;;;5075572;28;20175;-86
2021/03/04 10:12:33;;;;;;;15.87;3.00;;;5.80;81.00;;;;;;5075763;28;20178;-87
2021/03/04 10:15:01;;;;;;;11.97;3.00;;;5.80;81.30;;;;;;5075257;28;20170;-86
2021/03/04 10:17:44;;;;;;;15.37;3.00;;;5.80;80.30;;;;;;5075203;28;20643;-87
2021/03/04 10:20:13;;;;;;;9.00;2.77;;;5.80;80.20;;;;;;5075379;28;20178;-87
2021/03/04 10:22:49;;;;;;;14.77;3.33;;;5.90;80.20;;;;;;5075446;28;20704;-86
2021/03/04 10:25:16;;;;;;;12.60;3.10;;;5.90;79.90;;;;;;5093412;28;20170;-87
2021/03/04 10:27:44;;;;;;;13.47;4.43;;;5.90;79.60;;;;;;5093266;28;20163;-86
2021/03/04 10:30:14;;;;;;;17.23;3.10;;;5.90;79.40;;;;;;5093584;28;20151;-87
2021/03/04 10:32:46;;;;;;;17.67;3.47;;;5.90;80.00;;;;;;5093722;28;20171;-87
2021/03/04 10:35:16;;;;;;;15.43;3.50;;;6.00;80.20;;;;;;5093725;28;20584;-87
2021/03/04 10:37:45;;;;;;;12.20;3.67;;;6.10;80.40;;;;;;5075332;28;20194;-87
2021/03/04 10:40:20;;;;;;;25.67;4.47;;;6.10;80.60;;;;;;5093367;28;20178;-87
2021/03/04 10:42:46;;;;;;;12.50;3.07;;;6.20;80.40;;;;;;5075799;28;20556;-87
2021/03/04 10:45:14;;;;;;;17.07;3.10;;;6.10;79.60;;;;;;5075191;28;20650;-87
2021/03/04 10:47:48;;;;;;;9.30;2.83;;;6.10;79.90;;;;;;5075153;28;20176;-88
2021/03/04 10:50:22;;;;;;;13.07;2.93;;;6.20;80.30;;;;;;5075564;28;20171;-88
2021/03/04 10:52:48;;;;;;;14.60;2.83;;;6.30;80.30;;;;;;5096310;28;20173;-87
2021/03/04 10:55:16;;;;;;;20.23;3.40;;;6.20;79.90;;;;;;5078942;28;20175;-87
2021/03/04 10:57:42;;;;;;;13.77;3.17;;;6.00;80.30;;;;;;5097010;28;20171;-87
2021/03/04 11:00:10;;;;;;;12.27;3.23;;;6.10;80.60;;;;;;5096979;28;20180;-88
2021/03/04 11:02:36;;;;;;;14.43;3.90;;;6.10;80.70;;;;;;5096900;28;20178;-87
2021/03/04 11:05:03;;;;;;;13.90;3.03;;;6.20;80.60;;;;;;5078817;28;20654;-87
2021/03/04 11:07:29;;;;;;;13.70;4.13;;;6.20;80.80;;;;;;5078956;28;20223;-88
2021/03/04 11:09:55;;;;;;;11.03;3.07;;;6.30;80.70;;;;;;5096786;28;20579;-88
2021/03/04 11:12:28;;;;;;;15.50;3.10;;;6.30;80.10;;;;;;5078707;28;20188;-88
2021/03/04 11:15:00;;;;;;;8.50;2.97;;;6.30;80.00;;;;;;5078633;28;20234;-88
2021/03/04 11:17:30;;;;;;;8.07;3.00;;;6.30;79.00;;;;;;5096594;28;20276;-87
2021/03/04 11:20:07;;;;;;;17.47;3.63;;;6.30;79.10;;;;;;5096614;28;20274;-88
2021/03/04 11:22:39;;;;;;;10.30;2.73;;;6.30;78.80;;;;;;5096604;28;20183;-88
2021/03/04 11:25:10;;;;;;;13.73;3.37;;;6.30;79.10;;;;;;5078381;28;20656;-88
2021/03/04 11:27:37;;;;;;;11.80;3.00;;;6.30;78.90;;;;;;5078084;28;20237;-88
2021/03/04 11:30:05;;;;;;;11.90;4.03;;;6.30;79.20;;;;;;5096590;28;20181;-88
2021/03/04 11:32:32;;;;;;;17.77;3.83;;;6.30;79.30;;;;;;5078290;28;20534;-88
2021/03/04 11:34:59;;;;;;;14.67;3.83;;;6.30;79.60;;;;;;5078294;28;20184;-88
2021/03/04 11:37:31;;;;;;;17.90;3.33;;;6.30;79.60;;;;;;5078160;28;20276;-88
2021/03/04 11:40:05;;;;;;;13.17;3.83;;;6.10;79.60;;;;;;5079178;28;20219;-88
2021/03/04 11:42:32;;;;;;;12.93;3.77;;;6.20;80.00;;;;;;5078190;28;20203;-88
2021/03/04 11:44:58;;;;;;;11.37;3.90;;;6.30;80.00;;;;;;5078250;28;20178;-88
2021/03/04 11:47:24;;;;;;;19.97;3.93;;;6.30;79.90;;;;;;5089164;22;20574;-83
2021/03/04 11:49:53;;;;;;;14.80;3.40;;;6.30;80.00;;;;;;5076082;28;20173;-83
2021/03/04 11:52:20;;;;;;;26.40;4.50;;;6.20;79.70;;;;;;5075741;28;20181;-83
2021/03/04 11:54:47;;;;;;;19.90;4.13;;;6.30;79.60;;;;;;5075943;28;20172;-83
2021/03/04 11:57:13;;;;;;;15.63;4.13;;;6.20;79.90;;;;;;5057470;28;20209;-84
2021/03/04 11:59:40;;;;;;;20.47;4.13;;;6.20;80.10;;;;;;5075510;28;20201;-83
2021/03/04 12:02:07;;;;;;;23.40;4.47;;;6.20;80.30;;;;;;5075524;28;20226;-84
2021/03/04 12:04:39;;;;;;;13.13;4.00;;;6.10;79.80;;;;;;5074650;28;20196;-83
2021/03/04 12:07:05;;;;;;;22.70;5.33;;;6.10;80.20;;;;;;5057377;28;20286;-83
2021/03/04 12:09:31;;;;;;;15.10;4.07;;;6.00;80.30;;;;;;5075724;28;20181;-83
2021/03/04 12:12:00;;;;;;;25.47;8.23;;;6.00;79.90;;;;;;5057423;28;20230;-83
2021/03/04 12:14:26;;;;;;;22.30;4.53;;;6.00;79.20;;;;;;5075334;28;20175;-83
2021/03/04 12:16:55;;;;;;;18.27;4.07;;;6.00;79.60;;;;;;5075262;28;20280;-83
2021/03/04 12:19:22;;;;;;;11.57;3.70;;;6.10;76.70;;;;;;5075141;28;20660;-83
2021/03/04 12:21:51;;;;;;;14.77;3.90;;;6.10;77.40;;;;;;5057154;28;20553;-83
2021/03/04 12:24:18;;;;;;;18.10;4.50;;;6.10;78.50;;;;;;5075140;28;20168;-83
2021/03/04 12:26:52;;;;;;;21.87;4.03;;;6.20;79.10;;;;;;5057112;28;20282;-83
2021/03/04 12:29:18;;;;;;;19.00;4.87;;;6.10;78.90;;;;;;5075245;28;20230;-83
2021/03/04 12:31:48;;;;;;;17.70;3.83;;;6.10;79.10;;;;;;5057408;28;20560;-83
2021/03/04 12:34:24;;;;;;;15.67;4.40;;;6.10;79.60;;;;;;5057259;28;20585;-83
2021/03/04 12:37:01;;;;;;;17.33;4.13;;;6.20;79.80;;;;;;5075310;28;20666;-83
2021/03/04 12:39:37;;;;;;;16.70;4.70;;;6.20;79.70;;;;;;5074832;28;20671;-84
2021/03/04 12:42:10;;;;;;;16.60;4.00;;;6.20;79.30;;;;;;5074928;28;20161;-84
2021/03/04 12:44:41;;;;;;;13.40;5.00;;;6.20;79.00;;;;;;5057001;28;20215;-83
2021/03/04 12:47:17;;;;;;;16.90;4.17;;;6.20;79.00;;;;;;5074549;28;20707;-83
2021/03/04 12:49:51;;;;;;;14.30;4.20;;;6.20;78.70;;;;;;5074678;28;20248;-83
2021/03/04 12:52:26;;;;;;;22.03;5.07;;;6.20;78.90;;;;;;5074753;28;20189;-85
2021/03/04 12:55:00;;;;;;;23.83;4.47;;;6.20;78.80;;;;;;5074841;28;20653;-84
2021/03/04 12:57:37;;;;;;;20.53;5.17;;;6.20;79.10;;;;;;5056610;28;20611;-83
2021/03/04 13:00:18;;;;;;;18.67;5.23;;;6.20;78.90;;;;;;5056498;28;20196;-84
2021/03/04 13:02:49;;;;;;;16.80;4.30;;;6.30;79.10;;;;;;5074487;28;20165;-84
2021/03/04 13:05:26;;;;;;;14.83;3.73;;;6.30;79.20;;;;;;5056598;28;20174;-84
2021/03/04 13:08:01;;;;;;;20.20;4.27;;;6.30;79.20;;;;;;5074894;28;20195;-84
2021/03/04 13:10:28;;;;;;;18.30;4.90;;;6.20;79.30;;;;;;5074661;28;20222;-84
2021/03/04 13:13:03;;;;;;;21.07;4.33;;;6.20;79.20;;;;;;5056480;28;20178;-84
2021/03/04 13:15:41;;;;;;;17.47;4.43;;;6.20;78.90;;;;;;5074185;28;20197;-84
2021/03/04 13:18:15;;;;;;;19.03;4.67;;;6.20;78.90;;;;;;5074156;28;20725;-84
2021/03/04 13:20:51;;;;;;;15.33;4.67;;;6.10;79.20;;;;;;5074325;28;20204;-83